sensor_id;sensor_type;location;lat;lon;timestamp;temperature;humidity
52181;DHT22;38158;53.338;6.514;2023-07-13T00:01:53;15.80;99.90
52181;DHT22;38158;53.338;6.514;2023-07-13T00:04:21;15.80;99.90
52181;DHT22;38158;53.338;6.514;2023-07-13T00:06:48;15.90;99.90
52181;DHT22;38158;53.338;6.514;2023-07-13T00:09:16;15.80;99.90
52181;DHT22;38158;53.338;6.514;2023-07-13T00:11:43;15.90;99.90
52181;DHT22;38158;53.338;6.514;2023-07-13T00:14:09;15.90;99.90
52181;DHT22;38158;53.338;6.514;2023-07-13T00:16:37;15.80;99.90
52181;DHT22;38158;53.338;6.514;2023-07-13T00:19:03;15.90;99.90
52181;DHT22;38158;53.338;6.514;2023-07-13T00:21:29;15.80;99.90
52181;DHT22;38158;53.338;6.514;2023-07-13T00:23:55;15.80;99.90
52181;DHT22;38158;53.338;6.514;2023-07-13T00:26:21;15.80;99.90
52181;DHT22;38158;53.338;6.514;2023-07-13T00:28:47;15.90;99.90
52181;DHT22;38158;53.338;6.514;2023-07-13T00:31:13;15.90;99.90
52181;DHT22;38158;53.338;6.514;2023-07-13T00:33:43;15.90;99.90
52181;DHT22;38158;53.338;6.514;2023-07-13T00:36:09;15.90;99.90
52181;DHT22;38158;53.338;6.514;2023-07-13T00:38:35;15.90;99.90
52181;DHT22;38158;53.338;6.514;2023-07-13T00:41:03;15.90;99.90
52181;DHT22;38158;53.338;6.514;2023-07-13T00:43:29;15.90;99.90
52181;DHT22;38158;53.338;6.514;2023-07-13T00:48:27;15.80;99.90
52181;DHT22;38158;53.338;6.514;2023-07-13T00:50:57;15.80;99.90
52181;DHT22;38158;53.338;6.514;2023-07-13T00:53:25;15.80;99.90
52181;DHT22;38158;53.338;6.514;2023-07-13T00:55:53;15.70;99.90
52181;DHT22;38158;53.338;6.514;2023-07-13T00:58:20;15.70;99.90
52181;DHT22;38158;53.338;6.514;2023-07-13T01:00:47;15.70;99.90
52181;DHT22;38158;53.338;6.514;2023-07-13T01:03:15;15.70;99.90
52181;DHT22;38158;53.338;6.514;2023-07-13T01:05:41;15.70;99.90
52181;DHT22;38158;53.338;6.514;2023-07-13T01:08:07;15.60;99.90
52181;DHT22;38158;53.338;6.514;2023-07-13T01:10:33;15.60;99.90
52181;DHT22;38158;53.338;6.514;2023-07-13T01:13:07;15.60;99.90
52181;DHT22;38158;53.338;6.514;2023-07-13T01:15:35;15.60;99.90
52181;DHT22;38158;53.338;6.514;2023-07-13T01:18:02;15.60;99.90
52181;DHT22;38158;53.338;6.514;2023-07-13T01:20:28;15.60;99.90
52181;DHT22;38158;53.338;6.514;2023-07-13T01:22:53;15.60;99.90
52181;DHT22;38158;53.338;6.514;2023-07-13T01:25:20;15.60;99.90
52181;DHT22;38158;53.338;6.514;2023-07-13T01:27:46;15.60;99.90
52181;DHT22;38158;53.338;6.514;2023-07-13T01:30:12;15.60;99.90
52181;DHT22;38158;53.338;6.514;2023-07-13T01:32:38;15.60;99.90
52181;DHT22;38158;53.338;6.514;2023-07-13T01:35:07;15.60;99.90
52181;DHT22;38158;53.338;6.514;2023-07-13T01:37:33;15.60;99.90
52181;DHT22;38158;53.338;6.514;2023-07-13T01:40:03;15.60;99.90
52181;DHT22;38158;53.338;6.514;2023-07-13T01:42:30;15.60;99.90
52181;DHT22;38158;53.338;6.514;2023-07-13T01:44:55;15.70;99.90
52181;DHT22;38158;53.338;6.514;2023-07-13T01:47:22;15.70;99.90
52181;DHT22;38158;53.338;6.514;2023-07-13T01:49:49;15.70;99.90
52181;DHT22;38158;53.338;6.514;2023-07-13T01:52:17;15.70;99.90
52181;DHT22;38158;53.338;6.514;2023-07-13T01:54:43;15.70;99.90
52181;DHT22;38158;53.338;6.514;2023-07-13T01:57:08;15.60;99.90
52181;DHT22;38158;53.338;6.514;2023-07-13T01:59:34;15.60;99.90
52181;DHT22;38158;53.338;6.514;2023-07-13T02:02:00;15.60;99.90
52181;DHT22;38158;53.338;6.514;2023-07-13T02:04:26;15.60;99.90
52181;DHT22;38158;53.338;6.514;2023-07-13T02:06:51;15.60;99.90
52181;DHT22;38158;53.338;6.514;2023-07-13T02:09:17;15.60;99.90
52181;DHT22;38158;53.338;6.514;2023-07-13T02:11:43;15.60;99.90
52181;DHT22;38158;53.338;6.514;2023-07-13T02:14:09;15.50;99.90
52181;DHT22;38158;53.338;6.514;2023-07-13T02:16:34;15.50;99.90
52181;DHT22;38158;53.338;6.514;2023-07-13T02:19:00;15.50;99.90
52181;DHT22;38158;53.338;6.514;2023-07-13T02:21:26;15.50;99.90
52181;DHT22;38158;53.338;6.514;2023-07-13T02:23:52;15.40;99.90
52181;DHT22;38158;53.338;6.514;2023-07-13T02:26:18;15.40;99.90
52181;DHT22;38158;53.338;6.514;2023-07-13T02:28:44;15.40;99.90
52181;DHT22;38158;53.338;6.514;2023-07-13T02:31:12;15.40;99.90
52181;DHT22;38158;53.338;6.514;2023-07-13T02:33:38;15.30;99.90
52181;DHT22;38158;53.338;6.514;2023-07-13T02:36:05;15.30;99.90
52181;DHT22;38158;53.338;6.514;2023-07-13T02:38:32;15.30;99.90
52181;DHT22;38158;53.338;6.514;2023-07-13T02:41:03;15.30;99.90
52181;DHT22;38158;53.338;6.514;2023-07-13T02:43:29;15.30;99.90
52181;DHT22;38158;53.338;6.514;2023-07-13T02:45:55;15.30;99.90
52181;DHT22;38158;53.338;6.514;2023-07-13T02:48:21;15.30;99.90
52181;DHT22;38158;53.338;6.514;2023-07-13T02:50:47;15.30;99.90
52181;DHT22;38158;53.338;6.514;2023-07-13T02:53:12;15.30;99.90
52181;DHT22;38158;53.338;6.514;2023-07-13T02:55:38;15.30;99.90
52181;DHT22;38158;53.338;6.514;2023-07-13T02:58:06;15.30;99.90
52181;DHT22;38158;53.338;6.514;2023-07-13T03:00:32;15.30;99.90
52181;DHT22;38158;53.338;6.514;2023-07-13T03:02:58;15.40;99.90
52181;DHT22;38158;53.338;6.514;2023-07-13T03:05:24;15.40;99.90
52181;DHT22;38158;53.338;6.514;2023-07-13T03:07:50;15.40;99.90
52181;DHT22;38158;53.338;6.514;2023-07-13T03:10:15;15.50;99.90
52181;DHT22;38158;53.338;6.514;2023-07-13T03:12:42;15.50;99.90
52181;DHT22;38158;53.338;6.514;2023-07-13T03:15:08;15.50;99.90
52181;DHT22;38158;53.338;6.514;2023-07-13T03:17:33;15.50;99.90
52181;DHT22;38158;53.338;6.514;2023-07-13T03:19:59;15.50;99.90
52181;DHT22;38158;53.338;6.514;2023-07-13T03:22:25;15.40;99.90
52181;DHT22;38158;53.338;6.514;2023-07-13T03:24:51;15.40;99.90
52181;DHT22;38158;53.338;6.514;2023-07-13T03:27:17;15.40;99.90
52181;DHT22;38158;53.338;6.514;2023-07-13T03:29:43;15.40;99.90
52181;DHT22;38158;53.338;6.514;2023-07-13T03:32:09;15.40;99.90
52181;DHT22;38158;53.338;6.514;2023-07-13T03:34:35;15.30;99.90
52181;DHT22;38158;53.338;6.514;2023-07-13T03:37:01;15.40;99.90
52181;DHT22;38158;53.338;6.514;2023-07-13T03:39:27;15.30;99.90
52181;DHT22;38158;53.338;6.514;2023-07-13T03:41:52;15.30;99.90
52181;DHT22;38158;53.338;6.514;2023-07-13T03:44:18;15.30;99.90
52181;DHT22;38158;53.338;6.514;2023-07-13T03:46:45;15.30;99.90
52181;DHT22;38158;53.338;6.514;2023-07-13T03:49:11;15.30;99.90
52181;DHT22;38158;53.338;6.514;2023-07-13T03:51:37;15.30;99.90
52181;DHT22;38158;53.338;6.514;2023-07-13T03:54:03;15.40;99.90
52181;DHT22;38158;53.338;6.514;2023-07-13T03:56:29;15.40;99.90
52181;DHT22;38158;53.338;6.514;2023-07-13T03:58:56;15.30;99.90
52181;DHT22;38158;53.338;6.514;2023-07-13T04:01:23;15.40;99.90
52181;DHT22;38158;53.338;6.514;2023-07-13T04:03:51;15.30;99.90
52181;DHT22;38158;53.338;6.514;2023-07-13T04:06:30;15.30;99.90
52181;DHT22;38158;53.338;6.514;2023-07-13T04:08:59;15.30;99.90
52181;DHT22;38158;53.338;6.514;2023-07-13T04:11:28;15.30;99.90
52181;DHT22;38158;53.338;6.514;2023-07-13T04:13:54;15.30;99.90
52181;DHT22;38158;53.338;6.514;2023-07-13T04:16:20;15.20;99.90
52181;DHT22;38158;53.338;6.514;2023-07-13T04:18:48;15.20;99.90
52181;DHT22;38158;53.338;6.514;2023-07-13T04:21:14;15.20;99.90
52181;DHT22;38158;53.338;6.514;2023-07-13T04:23:40;15.20;99.90
52181;DHT22;38158;53.338;6.514;2023-07-13T04:26:07;15.10;99.90
52181;DHT22;38158;53.338;6.514;2023-07-13T04:28:33;15.10;99.90
52181;DHT22;38158;53.338;6.514;2023-07-13T04:30:59;15.10;99.90
52181;DHT22;38158;53.338;6.514;2023-07-13T04:33:26;15.20;99.90
52181;DHT22;38158;53.338;6.514;2023-07-13T04:35:53;15.10;99.90
52181;DHT22;38158;53.338;6.514;2023-07-13T04:38:26;15.20;99.90
52181;DHT22;38158;53.338;6.514;2023-07-13T04:40:58;15.10;99.90
52181;DHT22;38158;53.338;6.514;2023-07-13T04:43:25;15.20;99.90
52181;DHT22;38158;53.338;6.514;2023-07-13T04:45:51;15.20;99.90
52181;DHT22;38158;53.338;6.514;2023-07-13T04:48:18;15.20;99.90
52181;DHT22;38158;53.338;6.514;2023-07-13T04:50:43;15.30;99.90
52181;DHT22;38158;53.338;6.514;2023-07-13T04:53:10;15.30;99.90
52181;DHT22;38158;53.338;6.514;2023-07-13T04:55:36;15.40;99.90
52181;DHT22;38158;53.338;6.514;2023-07-13T04:58:02;15.40;99.90
52181;DHT22;38158;53.338;6.514;2023-07-13T05:00:29;15.50;99.90
52181;DHT22;38158;53.338;6.514;2023-07-13T05:02:56;15.50;99.90
52181;DHT22;38158;53.338;6.514;2023-07-13T05:05:23;15.50;99.90
52181;DHT22;38158;53.338;6.514;2023-07-13T05:07:49;15.60;99.90
52181;DHT22;38158;53.338;6.514;2023-07-13T05:10:16;15.60;99.90
52181;DHT22;38158;53.338;6.514;2023-07-13T05:12:41;15.70;99.90
52181;DHT22;38158;53.338;6.514;2023-07-13T05:15:07;15.70;99.90
52181;DHT22;38158;53.338;6.514;2023-07-13T05:17:33;15.80;99.90
52181;DHT22;38158;53.338;6.514;2023-07-13T05:19:59;15.90;99.90
52181;DHT22;38158;53.338;6.514;2023-07-13T05:22:25;15.90;99.90
52181;DHT22;38158;53.338;6.514;2023-07-13T05:24:51;16.00;99.90
52181;DHT22;38158;53.338;6.514;2023-07-13T05:27:16;16.00;99.90
52181;DHT22;38158;53.338;6.514;2023-07-13T05:29:42;16.10;99.90
52181;DHT22;38158;53.338;6.514;2023-07-13T05:32:08;16.20;99.90
52181;DHT22;38158;53.338;6.514;2023-07-13T05:34:34;16.20;99.90
52181;DHT22;38158;53.338;6.514;2023-07-13T05:36:59;16.30;99.90
52181;DHT22;38158;53.338;6.514;2023-07-13T05:39:25;16.30;99.90
52181;DHT22;38158;53.338;6.514;2023-07-13T05:41:53;16.30;99.90
52181;DHT22;38158;53.338;6.514;2023-07-13T05:44:18;16.30;99.90
52181;DHT22;38158;53.338;6.514;2023-07-13T05:46:45;16.40;99.90
52181;DHT22;38158;53.338;6.514;2023-07-13T05:49:11;16.50;99.90
52181;DHT22;38158;53.338;6.514;2023-07-13T05:51:37;16.50;99.90
52181;DHT22;38158;53.338;6.514;2023-07-13T05:54:02;16.50;99.90
52181;DHT22;38158;53.338;6.514;2023-07-13T05:56:28;16.50;99.90
52181;DHT22;38158;53.338;6.514;2023-07-13T05:58:55;16.60;99.90
52181;DHT22;38158;53.338;6.514;2023-07-13T06:01:21;16.60;99.90
52181;DHT22;38158;53.338;6.514;2023-07-13T06:03:48;16.70;99.90
52181;DHT22;38158;53.338;6.514;2023-07-13T06:06:15;16.80;99.90
52181;DHT22;38158;53.338;6.514;2023-07-13T06:08:40;16.90;99.90
52181;DHT22;38158;53.338;6.514;2023-07-13T06:11:12;17.00;99.90
52181;DHT22;38158;53.338;6.514;2023-07-13T06:13:39;17.00;99.90
52181;DHT22;38158;53.338;6.514;2023-07-13T06:16:05;17.10;99.90
52181;DHT22;38158;53.338;6.514;2023-07-13T06:18:33;17.10;99.90
52181;DHT22;38158;53.338;6.514;2023-07-13T06:20:59;17.20;99.90
52181;DHT22;38158;53.338;6.514;2023-07-13T06:23:25;17.20;99.90
52181;DHT22;38158;53.338;6.514;2023-07-13T06:25:51;17.30;99.90
52181;DHT22;38158;53.338;6.514;2023-07-13T06:28:17;17.30;99.90
52181;DHT22;38158;53.338;6.514;2023-07-13T06:30:42;17.30;99.90
52181;DHT22;38158;53.338;6.514;2023-07-13T06:33:08;17.40;99.90
52181;DHT22;38158;53.338;6.514;2023-07-13T06:35:34;17.50;99.90
52181;DHT22;38158;53.338;6.514;2023-07-13T06:38:00;17.50;99.90
52181;DHT22;38158;53.338;6.514;2023-07-13T06:40:26;17.60;99.90
52181;DHT22;38158;53.338;6.514;2023-07-13T06:42:54;17.70;99.90
52181;DHT22;38158;53.338;6.514;2023-07-13T06:45:19;17.80;99.90
52181;DHT22;38158;53.338;6.514;2023-07-13T06:47:45;17.90;99.90
52181;DHT22;38158;53.338;6.514;2023-07-13T06:50:11;17.90;99.90
52181;DHT22;38158;53.338;6.514;2023-07-13T06:52:37;18.00;99.90
52181;DHT22;38158;53.338;6.514;2023-07-13T06:55:03;18.20;99.90
52181;DHT22;38158;53.338;6.514;2023-07-13T06:57:28;18.30;99.90
52181;DHT22;38158;53.338;6.514;2023-07-13T06:59:54;18.30;99.90
52181;DHT22;38158;53.338;6.514;2023-07-13T07:02:20;18.30;99.90
52181;DHT22;38158;53.338;6.514;2023-07-13T07:04:46;18.40;99.90
52181;DHT22;38158;53.338;6.514;2023-07-13T07:07:11;18.50;99.90
52181;DHT22;38158;53.338;6.514;2023-07-13T07:09:37;18.50;99.90
52181;DHT22;38158;53.338;6.514;2023-07-13T07:12:03;18.60;99.90
52181;DHT22;38158;53.338;6.514;2023-07-13T07:14:30;18.70;99.90
52181;DHT22;38158;53.338;6.514;2023-07-13T07:16:56;18.80;99.90
52181;DHT22;38158;53.338;6.514;2023-07-13T07:19:22;18.80;99.90
52181;DHT22;38158;53.338;6.514;2023-07-13T07:21:48;18.90;99.90
52181;DHT22;38158;53.338;6.514;2023-07-13T07:24:13;19.00;99.90
52181;DHT22;38158;53.338;6.514;2023-07-13T07:26:41;19.10;99.90
52181;DHT22;38158;53.338;6.514;2023-07-13T07:29:07;19.10;99.90
52181;DHT22;38158;53.338;6.514;2023-07-13T07:31:32;19.10;99.90
52181;DHT22;38158;53.338;6.514;2023-07-13T07:33:58;19.00;99.90
52181;DHT22;38158;53.338;6.514;2023-07-13T07:36:24;19.10;99.90
52181;DHT22;38158;53.338;6.514;2023-07-13T07:38:50;19.00;99.90
52181;DHT22;38158;53.338;6.514;2023-07-13T07:41:15;19.00;99.90
52181;DHT22;38158;53.338;6.514;2023-07-13T07:43:41;19.10;99.90
52181;DHT22;38158;53.338;6.514;2023-07-13T07:46:07;19.10;99.90
52181;DHT22;38158;53.338;6.514;2023-07-13T07:48:32;19.20;99.90
52181;DHT22;38158;53.338;6.514;2023-07-13T07:50:58;19.20;99.90
52181;DHT22;38158;53.338;6.514;2023-07-13T07:53:24;19.20;99.90
52181;DHT22;38158;53.338;6.514;2023-07-13T07:55:50;19.30;99.90
52181;DHT22;38158;53.338;6.514;2023-07-13T07:58:16;19.40;99.90
52181;DHT22;38158;53.338;6.514;2023-07-13T08:00:42;19.50;99.90
52181;DHT22;38158;53.338;6.514;2023-07-13T08:03:08;19.50;99.90
52181;DHT22;38158;53.338;6.514;2023-07-13T08:05:37;19.50;99.90
52181;DHT22;38158;53.338;6.514;2023-07-13T08:08:03;19.50;99.90
52181;DHT22;38158;53.338;6.514;2023-07-13T08:10:29;19.50;99.90
52181;DHT22;38158;53.338;6.514;2023-07-13T08:12:55;19.50;99.90
52181;DHT22;38158;53.338;6.514;2023-07-13T08:15:21;19.50;99.90
52181;DHT22;38158;53.338;6.514;2023-07-13T08:17:48;19.50;99.90
52181;DHT22;38158;53.338;6.514;2023-07-13T08:20:14;19.50;99.90
52181;DHT22;38158;53.338;6.514;2023-07-13T08:22:40;19.60;99.90
52181;DHT22;38158;53.338;6.514;2023-07-13T08:25:06;19.70;99.90
52181;DHT22;38158;53.338;6.514;2023-07-13T08:27:33;19.90;99.90
52181;DHT22;38158;53.338;6.514;2023-07-13T08:29:58;20.10;99.90
52181;DHT22;38158;53.338;6.514;2023-07-13T08:32:24;20.10;99.90
52181;DHT22;38158;53.338;6.514;2023-07-13T08:34:51;19.90;99.90
52181;DHT22;38158;53.338;6.514;2023-07-13T08:37:17;19.80;99.90
52181;DHT22;38158;53.338;6.514;2023-07-13T08:39:43;19.60;99.90
52181;DHT22;38158;53.338;6.514;2023-07-13T08:48:00;19.10;99.90
52181;DHT22;38158;53.338;6.514;2023-07-13T08:50:34;19.10;99.90
52181;DHT22;38158;53.338;6.514;2023-07-13T08:53:02;19.30;99.90
52181;DHT22;38158;53.338;6.514;2023-07-13T08:55:32;19.40;99.90
52181;DHT22;38158;53.338;6.514;2023-07-13T08:58:12;19.60;99.90
52181;DHT22;38158;53.338;6.514;2023-07-13T09:01:08;19.80;99.90
52181;DHT22;38158;53.338;6.514;2023-07-13T09:03:37;20.00;99.90
52181;DHT22;38158;53.338;6.514;2023-07-13T09:06:06;20.30;99.90
52181;DHT22;38158;53.338;6.514;2023-07-13T09:16:30;20.60;99.90
52181;DHT22;38158;53.338;6.514;2023-07-13T09:19:01;20.40;99.90
52181;DHT22;38158;53.338;6.514;2023-07-13T09:21:36;20.30;99.90
52181;DHT22;38158;53.338;6.514;2023-07-13T09:24:35;20.20;99.90
52181;DHT22;38158;53.338;6.514;2023-07-13T09:27:01;20.00;99.90
52181;DHT22;38158;53.338;6.514;2023-07-13T09:29:33;19.80;99.90
52181;DHT22;38158;53.338;6.514;2023-07-13T09:32:03;19.60;99.90
52181;DHT22;38158;53.338;6.514;2023-07-13T09:34:32;19.40;99.90
52181;DHT22;38158;53.338;6.514;2023-07-13T09:36:58;19.20;99.90
52181;DHT22;38158;53.338;6.514;2023-07-13T09:39:28;19.30;99.90
52181;DHT22;38158;53.338;6.514;2023-07-13T09:44:36;20.10;99.90
52181;DHT22;38158;53.338;6.514;2023-07-13T09:47:03;20.40;99.90
52181;DHT22;38158;53.338;6.514;2023-07-13T09:49:34;20.50;99.90
52181;DHT22;38158;53.338;6.514;2023-07-13T09:52:02;20.50;99.90
52181;DHT22;38158;53.338;6.514;2023-07-13T09:54:28;20.30;99.90
52181;DHT22;38158;53.338;6.514;2023-07-13T09:56:59;20.20;99.90
52181;DHT22;38158;53.338;6.514;2023-07-13T09:59:33;20.10;99.90
52181;DHT22;38158;53.338;6.514;2023-07-13T10:01:59;20.00;99.90
52181;DHT22;38158;53.338;6.514;2023-07-13T10:04:34;19.90;99.90
52181;DHT22;38158;53.338;6.514;2023-07-13T10:07:12;19.90;99.90
52181;DHT22;38158;53.338;6.514;2023-07-13T10:09:41;20.00;99.90
52181;DHT22;38158;53.338;6.514;2023-07-13T10:12:14;20.10;99.90
52181;DHT22;38158;53.338;6.514;2023-07-13T10:14:42;20.20;99.90
52181;DHT22;38158;53.338;6.514;2023-07-13T10:17:13;20.30;99.90
52181;DHT22;38158;53.338;6.514;2023-07-13T10:19:41;20.60;99.90
52181;DHT22;38158;53.338;6.514;2023-07-13T10:25:17;20.60;99.90
52181;DHT22;38158;53.338;6.514;2023-07-13T10:27:44;20.70;99.90
52181;DHT22;38158;53.338;6.514;2023-07-13T10:30:27;20.80;99.90
52181;DHT22;38158;53.338;6.514;2023-07-13T10:32:58;21.10;99.90
52181;DHT22;38158;53.338;6.514;2023-07-13T10:35:26;21.20;99.90
52181;DHT22;38158;53.338;6.514;2023-07-13T10:37:54;21.10;99.90
52181;DHT22;38158;53.338;6.514;2023-07-13T10:40:38;21.10;99.90
52181;DHT22;38158;53.338;6.514;2023-07-13T10:43:13;21.30;99.90
52181;DHT22;38158;53.338;6.514;2023-07-13T10:45:40;21.60;99.90
52181;DHT22;38158;53.338;6.514;2023-07-13T10:48:11;21.80;99.90
52181;DHT22;38158;53.338;6.514;2023-07-13T10:50:40;22.00;99.90
52181;DHT22;38158;53.338;6.514;2023-07-13T10:53:27;21.90;99.90
52181;DHT22;38158;53.338;6.514;2023-07-13T11:01:03;22.10;99.90
52181;DHT22;38158;53.338;6.514;2023-07-13T11:03:31;22.20;99.90
52181;DHT22;38158;53.338;6.514;2023-07-13T11:11:35;22.40;99.90
52181;DHT22;38158;53.338;6.514;2023-07-13T11:16:48;22.60;99.90
52181;DHT22;38158;53.338;6.514;2023-07-13T11:24:59;22.00;99.90
52181;DHT22;38158;53.338;6.514;2023-07-13T11:27:43;21.80;99.90
52181;DHT22;38158;53.338;6.514;2023-07-13T11:30:32;21.90;99.90
52181;DHT22;38158;53.338;6.514;2023-07-13T11:33:19;21.80;99.90
52181;DHT22;38158;53.338;6.514;2023-07-13T11:38:38;21.50;99.90
52181;DHT22;38158;53.338;6.514;2023-07-13T11:41:15;21.60;99.90
52181;DHT22;38158;53.338;6.514;2023-07-13T11:43:42;21.80;99.90
52181;DHT22;38158;53.338;6.514;2023-07-13T11:46:16;22.00;99.90
52181;DHT22;38158;53.338;6.514;2023-07-13T11:48:45;22.20;99.90
52181;DHT22;38158;53.338;6.514;2023-07-13T11:51:22;22.10;99.90
52181;DHT22;38158;53.338;6.514;2023-07-13T11:53:51;21.80;99.90
52181;DHT22;38158;53.338;6.514;2023-07-13T11:56:17;21.50;99.90
52181;DHT22;38158;53.338;6.514;2023-07-13T11:58:44;21.40;99.90
52181;DHT22;38158;53.338;6.514;2023-07-13T12:01:18;21.40;99.90
52181;DHT22;38158;53.338;6.514;2023-07-13T12:03:46;21.60;99.90
52181;DHT22;38158;53.338;6.514;2023-07-13T12:06:30;21.80;99.90
52181;DHT22;38158;53.338;6.514;2023-07-13T12:09:00;22.00;99.90
52181;DHT22;38158;53.338;6.514;2023-07-13T12:11:27;22.20;99.90
52181;DHT22;38158;53.338;6.514;2023-07-13T12:13:53;22.50;99.90
52181;DHT22;38158;53.338;6.514;2023-07-13T12:16:32;22.50;99.90
52181;DHT22;38158;53.338;6.514;2023-07-13T12:19:00;22.40;99.90
52181;DHT22;38158;53.338;6.514;2023-07-13T12:23:55;21.80;99.90
52181;DHT22;38158;53.338;6.514;2023-07-13T12:26:21;21.30;99.90
52181;DHT22;38158;53.338;6.514;2023-07-13T12:28:54;21.00;99.90
52181;DHT22;38158;53.338;6.514;2023-07-13T12:34:06;20.40;99.90
52181;DHT22;38158;53.338;6.514;2023-07-13T12:36:34;20.10;99.90
52181;DHT22;38158;53.338;6.514;2023-07-13T12:39:06;20.00;99.90
52181;DHT22;38158;53.338;6.514;2023-07-13T12:41:37;19.80;99.90
52181;DHT22;38158;53.338;6.514;2023-07-13T12:44:02;19.70;99.90
52181;DHT22;38158;53.338;6.514;2023-07-13T12:46:28;19.50;99.90
52181;DHT22;38158;53.338;6.514;2023-07-13T12:48:57;19.30;99.90
52181;DHT22;38158;53.338;6.514;2023-07-13T12:51:26;19.30;99.90
52181;DHT22;38158;53.338;6.514;2023-07-13T12:54:06;19.40;99.90
52181;DHT22;38158;53.338;6.514;2023-07-13T12:56:36;19.80;99.90
52181;DHT22;38158;53.338;6.514;2023-07-13T12:59:04;20.20;99.90
52181;DHT22;38158;53.338;6.514;2023-07-13T13:01:33;20.40;99.90
52181;DHT22;38158;53.338;6.514;2023-07-13T13:04:02;20.40;99.90
52181;DHT22;38158;53.338;6.514;2023-07-13T13:06:34;20.50;99.90
52181;DHT22;38158;53.338;6.514;2023-07-13T13:09:02;20.70;99.90
52181;DHT22;38158;53.338;6.514;2023-07-13T13:11:31;21.20;99.90
52181;DHT22;38158;53.338;6.514;2023-07-13T13:13:57;21.60;99.90
52181;DHT22;38158;53.338;6.514;2023-07-13T13:18:53;21.70;99.90
52181;DHT22;38158;53.338;6.514;2023-07-13T13:21:20;21.50;99.90
52181;DHT22;38158;53.338;6.514;2023-07-13T13:23:46;21.30;99.90
52181;DHT22;38158;53.338;6.514;2023-07-13T13:26:15;21.10;99.90
52181;DHT22;38158;53.338;6.514;2023-07-13T13:28:45;21.10;99.90
52181;DHT22;38158;53.338;6.514;2023-07-13T13:31:12;21.10;99.90
52181;DHT22;38158;53.338;6.514;2023-07-13T13:33:39;21.20;99.90
52181;DHT22;38158;53.338;6.514;2023-07-13T13:36:19;21.30;99.90
52181;DHT22;38158;53.338;6.514;2023-07-13T13:38:47;21.30;99.90
52181;DHT22;38158;53.338;6.514;2023-07-13T13:41:14;21.30;99.90
52181;DHT22;38158;53.338;6.514;2023-07-13T13:43:41;21.20;99.90
52181;DHT22;38158;53.338;6.514;2023-07-13T13:46:14;21.30;99.90
52181;DHT22;38158;53.338;6.514;2023-07-13T13:48:41;21.20;99.90
52181;DHT22;38158;53.338;6.514;2023-07-13T13:51:26;21.10;99.90
52181;DHT22;38158;53.338;6.514;2023-07-13T13:53:52;21.00;99.90
52181;DHT22;38158;53.338;6.514;2023-07-13T13:56:19;21.10;99.90
52181;DHT22;38158;53.338;6.514;2023-07-13T13:58:46;21.30;99.90
52181;DHT22;38158;53.338;6.514;2023-07-13T14:01:17;21.40;99.90
52181;DHT22;38158;53.338;6.514;2023-07-13T14:03:44;21.60;99.90
52181;DHT22;38158;53.338;6.514;2023-07-13T14:06:14;21.80;99.90
52181;DHT22;38158;53.338;6.514;2023-07-13T14:08:41;21.90;99.90
52181;DHT22;38158;53.338;6.514;2023-07-13T14:11:12;21.90;99.90
52181;DHT22;38158;53.338;6.514;2023-07-13T14:13:47;21.90;99.90
52181;DHT22;38158;53.338;6.514;2023-07-13T14:16:20;21.90;99.90
52181;DHT22;38158;53.338;6.514;2023-07-13T14:18:47;22.00;99.90
52181;DHT22;38158;53.338;6.514;2023-07-13T14:21:18;21.90;99.90
52181;DHT22;38158;53.338;6.514;2023-07-13T14:23:46;21.70;99.90
52181;DHT22;38158;53.338;6.514;2023-07-13T14:26:21;21.50;99.90
52181;DHT22;38158;53.338;6.514;2023-07-13T14:28:50;21.50;99.90
52181;DHT22;38158;53.338;6.514;2023-07-13T14:31:17;21.50;99.90
52181;DHT22;38158;53.338;6.514;2023-07-13T14:33:44;21.60;99.90
52181;DHT22;38158;53.338;6.514;2023-07-13T14:36:52;21.60;99.90
52181;DHT22;38158;53.338;6.514;2023-07-13T14:39:10;21.80;99.90
52181;DHT22;38158;53.338;6.514;2023-07-13T14:41:37;21.60;99.90
52181;DHT22;38158;53.338;6.514;2023-07-13T14:44:20;21.40;99.90
52181;DHT22;38158;53.338;6.514;2023-07-13T14:46:46;21.40;99.90
52181;DHT22;38158;53.338;6.514;2023-07-13T14:49:27;21.40;99.90
52181;DHT22;38158;53.338;6.514;2023-07-13T14:51:56;21.50;99.90
52181;DHT22;38158;53.338;6.514;2023-07-13T14:54:23;21.60;99.90
52181;DHT22;38158;53.338;6.514;2023-07-13T14:56:49;21.50;99.90
52181;DHT22;38158;53.338;6.514;2023-07-13T14:59:16;21.30;99.90
52181;DHT22;38158;53.338;6.514;2023-07-13T15:01:44;21.30;99.90
52181;DHT22;38158;53.338;6.514;2023-07-13T15:04:11;21.40;99.90
52181;DHT22;38158;53.338;6.514;2023-07-13T15:06:59;21.60;99.90
52181;DHT22;38158;53.338;6.514;2023-07-13T15:09:26;21.70;99.90
52181;DHT22;38158;53.338;6.514;2023-07-13T15:11:58;21.80;99.90
52181;DHT22;38158;53.338;6.514;2023-07-13T15:14:25;22.10;99.90
52181;DHT22;38158;53.338;6.514;2023-07-13T15:16:51;22.10;99.90
52181;DHT22;38158;53.338;6.514;2023-07-13T15:19:19;22.00;99.90
52181;DHT22;38158;53.338;6.514;2023-07-13T15:21:47;22.00;99.90
52181;DHT22;38158;53.338;6.514;2023-07-13T15:24:14;22.10;99.90
52181;DHT22;38158;53.338;6.514;2023-07-13T15:26:40;22.10;99.90
52181;DHT22;38158;53.338;6.514;2023-07-13T15:29:08;21.90;99.90
52181;DHT22;38158;53.338;6.514;2023-07-13T15:31:34;21.90;99.90
52181;DHT22;38158;53.338;6.514;2023-07-13T15:34:09;21.90;99.90
52181;DHT22;38158;53.338;6.514;2023-07-13T15:36:36;21.90;99.90
52181;DHT22;38158;53.338;6.514;2023-07-13T15:39:02;21.90;99.90
52181;DHT22;38158;53.338;6.514;2023-07-13T15:41:28;21.90;99.90
52181;DHT22;38158;53.338;6.514;2023-07-13T15:43:56;21.90;99.90
52181;DHT22;38158;53.338;6.514;2023-07-13T15:46:27;21.90;99.90
52181;DHT22;38158;53.338;6.514;2023-07-13T15:48:54;21.80;99.90
52181;DHT22;38158;53.338;6.514;2023-07-13T15:51:26;21.60;99.90
52181;DHT22;38158;53.338;6.514;2023-07-13T15:54:00;21.60;99.90
52181;DHT22;38158;53.338;6.514;2023-07-13T15:56:35;21.60;99.90
52181;DHT22;38158;53.338;6.514;2023-07-13T15:59:02;21.60;99.90
52181;DHT22;38158;53.338;6.514;2023-07-13T16:01:30;21.80;99.90
52181;DHT22;38158;53.338;6.514;2023-07-13T16:03:55;21.90;99.90
52181;DHT22;38158;53.338;6.514;2023-07-13T16:06:29;21.80;99.90
52181;DHT22;38158;53.338;6.514;2023-07-13T16:08:55;21.80;99.90
52181;DHT22;38158;53.338;6.514;2023-07-13T16:11:26;21.60;99.90
52181;DHT22;38158;53.338;6.514;2023-07-13T16:13:53;21.40;99.90
52181;DHT22;38158;53.338;6.514;2023-07-13T16:16:28;21.50;99.90
52181;DHT22;38158;53.338;6.514;2023-07-13T16:18:55;21.50;99.90
52181;DHT22;38158;53.338;6.514;2023-07-13T16:21:30;21.50;99.90
52181;DHT22;38158;53.338;6.514;2023-07-13T16:23:58;21.60;99.90
52181;DHT22;38158;53.338;6.514;2023-07-13T16:26:32;21.70;99.90
52181;DHT22;38158;53.338;6.514;2023-07-13T16:29:26;21.70;99.90